Time;durP1;ratioP1;P1;durP2;ratioP2;P2;SDS_P1;SDS_P2;PMS_P1;PMS_P2;Temp;Humidity;BMP_temperature;BMP_pressure;BME280_temperature;BME280_humidity;BME280_pressure;Samples;Min_cycle;Max_cycle;Signal;HPM_P1;HPM_P2
2021/05/31 00:01:35;;;;;;;;;;;10.20;12.40;;;;;;5027922;28;19914;-64
2021/05/31 00:04:01;;;;;;;;;;;10.20;13.40;;;;;;5028140;28;19924;-65
2021/05/31 00:06:26;;;;;;;;;;;10.10;14.20;;;;;;5027610;28;19909;-65
2021/05/31 00:08:52;;;;;;;;;;;10.10;15.20;;;;;;5028330;28;19909;-65
2021/05/31 00:11:18;;;;;;;;;;;10.00;16.00;;;;;;5027771;28;19917;-64
2021/05/31 00:13:44;;;;;;;;;;;10.00;17.20;;;;;;5027621;28;19916;-63
2021/05/31 00:16:09;;;;;;;;;;;10.00;18.60;;;;;;5028472;28;19909;-65
2021/05/31 00:18:35;;;;;;;;;;;10.00;19.90;;;;;;5027972;28;20266;-65
2021/05/31 00:21:00;;;;;;;;;;;9.90;21.50;;;;;;5027101;28;19913;-65
2021/05/31 00:23:26;;;;;;;;;;;9.90;22.90;;;;;;5028146;28;19980;-65
2021/05/31 00:25:51;;;;;;;;;;;9.90;24.70;;;;;;5029943;28;19920;-65
2021/05/31 00:28:17;;;;;;;;;;;9.80;26.20;;;;;;5030971;28;20380;-65
2021/05/31 00:30:42;;;;;;;;;;;9.70;28.20;;;;;;5031125;28;19982;-65
2021/05/31 00:33:08;;;;;;;;;;;9.70;30.60;;;;;;5031472;28;20301;-64
2021/05/31 00:35:33;;;;;;;;;;;9.70;33.40;;;;;;5031499;28;20283;-64
2021/05/31 00:37:59;;;;;;;;;;;9.70;36.00;;;;;;5031268;28;19973;-64
2021/05/31 00:40:25;;;;;;;;;;;9.60;38.20;;;;;;5030363;28;19955;-65
2021/05/31 00:42:51;;;;;;;;;;;9.60;42.40;;;;;;5030693;28;19921;-65
2021/05/31 00:45:17;;;;;;;;;;;9.50;45.80;;;;;;5031560;28;19909;-64
2021/05/31 00:47:42;;;;;;;;;;;9.50;48.90;;;;;;5031328;28;19913;-63
2021/05/31 00:50:08;;;;;;;;;;;9.50;54.40;;;;;;5030494;28;19960;-64
2021/05/31 00:52:34;;;;;;;;;;;9.40;58.80;;;;;;5031412;28;19909;-63
2021/05/31 00:54:59;;;;;;;;;;;9.40;64.00;;;;;;5031628;28;19928;-63
2021/05/31 00:57:25;;;;;;;;;;;9.40;70.00;;;;;;5030347;28;19909;-64
2021/05/31 00:59:51;;;;;;;;;;;9.40;76.70;;;;;;5030615;28;20008;-65
2021/05/31 01:02:17;;;;;;;;;;;9.40;86.00;;;;;;5028609;28;20319;-64
2021/05/31 01:04:42;;;;;;;;;;;9.30;92.20;;;;;;5031022;28;20417;-64
2021/05/31 01:07:27;;;;;;;;;;;9.30;97.00;;;;;;5030502;28;19956;-64
2021/05/31 01:09:58;;;;;;;;;;;9.20;99.90;;;;;;5029706;28;19963;-65
2021/05/31 01:12:30;;;;;;;;;;;9.20;99.90;;;;;;5029855;28;20012;-64
2021/05/31 01:14:55;;;;;;;;;;;9.20;99.90;;;;;;5030652;28;20501;-65
2021/05/31 01:17:36;;;;;;;;;;;9.10;99.90;;;;;;5030625;28;19909;-64
2021/05/31 01:20:09;;;;;;;;;;;9.10;99.90;;;;;;5029744;28;19916;-64
2021/05/31 01:22:36;;;;;;;;;;;9.10;99.90;;;;;;5030137;28;19913;-63
2021/05/31 01:25:08;;;;;;;;;;;9.00;99.90;;;;;;5032245;28;19909;-65
2021/05/31 01:27:56;;;;;;;;;;;9.00;99.90;;;;;;5029676;28;19971;-65
2021/05/31 01:30:23;;;;;;;;;;;9.00;99.90;;;;;;4999749;28;19913;-65
2021/05/31 01:32:53;;;;;;;;;;;8.90;99.90;;;;;;5030152;28;19920;-65
2021/05/31 01:35:24;;;;;;;;;;;8.90;99.90;;;;;;5030855;28;19909;-65
2021/05/31 01:37:50;;;;;;;;;;;8.90;99.90;;;;;;5029535;28;19951;-65
2021/05/31 01:40:16;;;;;;;;;;;8.80;99.90;;;;;;5029417;28;19968;-65
2021/05/31 01:42:42;;;;;;;;;;;8.80;99.90;;;;;;5029174;28;19917;-65
2021/05/31 01:45:09;;;;;;;;;;;8.70;99.90;;;;;;5030131;28;19913;-65
2021/05/31 01:47:35;;;;;;;;;;;8.70;99.90;;;;;;5029842;28;19909;-65
2021/05/31 01:50:02;;;;;;;;;;;8.70;99.90;;;;;;5029614;28;19921;-65
2021/05/31 01:52:28;;;;;;;;;;;8.70;99.90;;;;;;5029189;28;19909;-65
2021/05/31 01:54:57;;;;;;;;;;;8.60;99.90;;;;;;5030467;28;19941;-65
2021/05/31 01:57:23;;;;;;;;;;;8.60;99.90;;;;;;5029301;28;19909;-65
2021/05/31 01:59:49;;;;;;;;;;;8.60;99.90;;;;;;5028964;28;19913;-65
2021/05/31 02:02:15;;;;;;;;;;;8.60;99.90;;;;;;5029057;28;19913;-65
2021/05/31 02:04:41;;;;;;;;;;;8.60;99.90;;;;;;5030323;28;19996;-65
2021/05/31 02:07:07;;;;;;;;;;;8.60;99.90;;;;;;5029271;28;20561;-65
2021/05/31 02:09:32;;;;;;;;;;;8.50;99.90;;;;;;5029143;28;20039;-65
2021/05/31 02:12:04;;;;;;;;;;;8.50;1.00;;;;;;5028875;28;19917;-65
2021/05/31 02:14:36;;;;;;;;;;;8.50;1.00;;;;;;5029624;28;19952;-65
2021/05/31 02:17:14;;;;;;;;;;;8.40;1.00;;;;;;5029701;28;19909;-65
2021/05/31 02:19:40;;;;;;;;;;;8.40;1.00;;;;;;5029309;28;19916;-65
2021/05/31 02:22:08;;;;;;;;;;;8.40;1.00;;;;;;5028967;28;19921;-65
2021/05/31 02:24:36;;;;;;;;;;;8.30;1.00;;;;;;5029608;28;20631;-65
2021/05/31 02:27:02;;;;;;;;;;;8.30;1.00;;;;;;5028489;28;19917;-65
2021/05/31 02:29:28;;;;;;;;;;;8.30;1.00;;;;;;5028932;28;19910;-65
2021/05/31 02:31:53;;;;;;;;;;;8.20;1.00;;;;;;5029362;28;19913;-65
2021/05/31 02:34:19;;;;;;;;;;;8.20;1.00;;;;;;5028962;28;19975;-65
2021/05/31 02:36:46;;;;;;;;;;;8.20;1.00;;;;;;5029164;28;20000;-65
2021/05/31 02:39:11;;;;;;;;;;;8.20;1.00;;;;;;5028359;28;19961;-65
2021/05/31 02:41:37;;;;;;;;;;;8.20;1.00;;;;;;5028326;28;19953;-65
2021/05/31 02:44:02;;;;;;;;;;;8.20;1.00;;;;;;5029330;28;20445;-65
2021/05/31 02:46:28;;;;;;;;;;;8.10;3.50;;;;;;5028621;28;20370;-65
2021/05/31 02:48:53;;;;;;;;;;;8.10;39.20;;;;;;5027955;28;19971;-65
2021/05/31 02:51:19;;;;;;;;;;;8.10;42.00;;;;;;5028373;28;19909;-65
2021/05/31 02:53:44;;;;;;;;;;;8.10;54.70;;;;;;5029024;28;20003;-65
2021/05/31 02:56:10;;;;;;;;;;;8.10;99.90;;;;;;5029277;28;19909;-64
2021/05/31 02:58:36;;;;;;;;;;;8.10;99.90;;;;;;5028016;28;19924;-65
2021/05/31 03:01:01;;;;;;;;;;;8.10;99.90;;;;;;5028054;28;19959;-65
2021/05/31 03:03:27;;;;;;;;;;;8.10;99.90;;;;;;5029012;28;19932;-65
2021/05/31 03:05:52;;;;;;;;;;;8.10;99.90;;;;;;5028634;28;20015;-65
2021/05/31 03:08:18;;;;;;;;;;;8.00;99.90;;;;;;5028602;28;19917;-65
2021/05/31 03:10:43;;;;;;;;;;;8.00;99.90;;;;;;5027712;28;19921;-65
2021/05/31 03:13:09;;;;;;;;;;;8.10;1.00;;;;;;5028289;28;19932;-65
2021/05/31 03:15:34;;;;;;;;;;;8.00;1.00;;;;;;5028647;28;19910;-65
2021/05/31 03:18:00;;;;;;;;;;;8.00;1.00;;;;;;5029263;28;20293;-65
2021/05/31 03:20:26;;;;;;;;;;;8.00;1.00;;;;;;5027175;28;19917;-65
2021/05/31 03:22:52;;;;;;;;;;;8.00;1.00;;;;;;5028518;28;20011;-65
2021/05/31 03:25:18;;;;;;;;;;;7.90;36.90;;;;;;5028739;28;20056;-65
2021/05/31 03:27:43;;;;;;;;;;;7.90;99.90;;;;;;5028137;28;19910;-63
2021/05/31 03:30:09;;;;;;;;;;;7.90;99.90;;;;;;5028165;28;19909;-65
2021/05/31 03:32:35;;;;;;;;;;;7.90;99.90;;;;;;5027988;28;19909;-64
2021/05/31 03:35:01;;;;;;;;;;;7.90;99.90;;;;;;5028693;28;20369;-65
2021/05/31 03:37:26;;;;;;;;;;;7.90;99.90;;;;;;5028113;28;19935;-64
2021/05/31 03:39:52;;;;;;;;;;;7.90;1.00;;;;;;5027551;28;20449;-65
2021/05/31 03:42:17;;;;;;;;;;;8.00;1.00;;;;;;5027158;28;19917;-63
2021/05/31 03:44:43;;;;;;;;;;;8.10;1.00;;;;;;5028179;28;19992;-64
2021/05/31 03:47:09;;;;;;;;;;;8.30;1.00;;;;;;5028546;28;19913;-60
2021/05/31 03:49:34;;;;;;;;;;;8.50;99.90;;;;;;5027716;28;19913;-61
2021/05/31 03:51:59;;;;;;;;;;;8.70;1.00;;;;;;5028016;28;19916;-64
2021/05/31 03:54:25;;;;;;;;;;;8.90;1.00;;;;;;5028226;28;20008;-65
2021/05/31 03:56:51;;;;;;;;;;;9.20;99.90;;;;;;5027608;28;19949;-65
2021/05/31 03:59:18;;;;;;;;;;;9.50;99.90;;;;;;5028080;28;19959;-65
2021/05/31 04:01:44;;;;;;;;;;;9.70;31.00;;;;;;5031161;28;19960;-65
2021/05/31 04:04:10;;;;;;;;;;;10.00;1.00;;;;;;5033871;28;19916;-65
2021/05/31 04:11:33;;;;;;;;;;;10.30;1.00;;;;;;5031003;28;19913;-67
2021/05/31 04:12:06;;;;;;;;;;;11.10;99.90;;;;;;5030883;28;20432;-66
2021/05/31 04:14:32;;;;;;;;;;;11.50;99.90;;;;;;5031589;28;19913;-64
2021/05/31 04:16:57;;;;;;;;;;;11.60;99.90;;;;;;5031549;28;19909;-65
2021/05/31 04:19:24;;;;;;;;;;;11.30;99.90;;;;;;5031095;28;20036;-65
2021/05/31 04:21:50;;;;;;;;;;;11.20;99.90;;;;;;5031036;28;19913;-65
2021/05/31 04:24:16;;;;;;;;;;;11.50;99.90;;;;;;5013585;28;20008;-65
2021/05/31 04:26:42;;;;;;;;;;;12.00;99.90;;;;;;5030156;28;19999;-65
2021/05/31 04:29:08;;;;;;;;;;;12.50;99.90;;;;;;5030902;28;20389;-65
2021/05/31 04:31:34;;;;;;;;;;;13.10;99.90;;;;;;5030771;28;19963;-65
2021/05/31 04:34:00;;;;;;;;;;;13.80;99.90;;;;;;5028052;28;19974;-65
2021/05/31 04:36:27;;;;;;;;;;;14.40;99.90;;;;;;5024175;28;19920;-65
2021/05/31 04:38:52;;;;;;;;;;;14.70;99.90;;;;;;5030986;28;19980;-65
2021/05/31 04:41:18;;;;;;;;;;;15.20;99.90;;;;;;5029389;28;19965;-65
2021/05/31 04:43:43;;;;;;;;;;;15.70;99.90;;;;;;5030272;28;19963;-65
2021/05/31 04:46:09;;;;;;;;;;;16.00;99.90;;;;;;5031758;28;19983;-65
2021/05/31 04:48:34;;;;;;;;;;;16.40;99.90;;;;;;5031054;28;19979;-65
2021/05/31 04:51:01;;;;;;;;;;;16.70;99.90;;;;;;5030327;28;19909;-65
2021/05/31 04:53:28;;;;;;;;;;;17.20;99.90;;;;;;5028645;28;19917;-65
2021/05/31 04:55:54;;;;;;;;;;;17.70;99.90;;;;;;5031179;28;19917;-68
2021/05/31 04:58:20;;;;;;;;;;;18.00;99.90;;;;;;5029775;28;19916;-66
2021/05/31 05:00:45;;;;;;;;;;;18.40;99.90;;;;;;5030110;28;19925;-66
2021/05/31 05:03:11;;;;;;;;;;;19.00;99.90;;;;;;5030824;28;19917;-69
2021/05/31 05:05:37;;;;;;;;;;;19.20;99.90;;;;;;5030971;28;19957;-66
2021/05/31 05:08:02;;;;;;;;;;;19.70;99.90;;;;;;5031765;28;20240;-64
2021/05/31 05:10:28;;;;;;;;;;;19.90;99.90;;;;;;5029791;28;19924;-66
2021/05/31 05:12:53;;;;;;;;;;;20.30;99.90;;;;;;5029750;28;19909;-65
2021/05/31 05:15:20;;;;;;;;;;;21.10;99.90;;;;;;5028796;28;20016;-64
2021/05/31 05:17:46;;;;;;;;;;;21.50;98.90;;;;;;5030385;28;19917;-64
2021/05/31 05:20:13;;;;;;;;;;;21.20;95.70;;;;;;5029172;28;20365;-64
2021/05/31 05:22:38;;;;;;;;;;;21.60;93.90;;;;;;5029726;28;19917;-64
2021/05/31 05:25:04;;;;;;;;;;;21.80;91.00;;;;;;5030776;28;19909;-65
2021/05/31 05:27:30;;;;;;;;;;;22.20;90.10;;;;;;5029794;28;19956;-64
2021/05/31 05:29:55;;;;;;;;;;;22.40;84.90;;;;;;5029697;28;19976;-64
2021/05/31 05:32:21;;;;;;;;;;;22.40;79.70;;;;;;5030265;28;19921;-64
2021/05/31 05:34:48;;;;;;;;;;;22.70;76.50;;;;;;5030494;28;19966;-64
2021/05/31 05:37:29;;;;;;;;;;;22.90;71.50;;;;;;5029675;28;19944;-64
2021/05/31 05:49:40;;;;;;;;;;;25.00;55.90;;;;;;5030050;28;19950;-67
2021/05/31 05:52:06;;;;;;;;;;;25.00;51.40;;;;;;5029596;28;19964;-67
2021/05/31 05:54:31;;;;;;;;;;;24.80;47.30;;;;;;5030260;28;20041;-66
2021/05/31 05:56:57;;;;;;;;;;;24.70;42.20;;;;;;5029295;28;20111;-66
2021/05/31 05:59:22;;;;;;;;;;;24.20;36.90;;;;;;5029463;28;19931;-67
2021/05/31 06:01:50;;;;;;;;;;;24.70;36.80;;;;;;5029739;28;19920;-65
2021/05/31 06:04:16;;;;;;;;;;;24.50;32.90;;;;;;5030487;28;19919;-65
2021/05/31 06:06:43;;;;;;;;;;;25.00;32.00;;;;;;5029700;28;19909;-63
2021/05/31 06:09:12;;;;;;;;;;;25.30;29.70;;;;;;5029084;28;20422;-65
2021/05/31 06:11:37;;;;;;;;;;;25.00;26.70;;;;;;5028737;28;19921;-65
2021/05/31 06:14:03;;;;;;;;;;;25.60;26.70;;;;;;5029502;28;19913;-65
2021/05/31 06:16:28;;;;;;;;;;;26.30;26.00;;;;;;5029643;28;19913;-65
2021/05/31 06:18:54;;;;;;;;;;;26.60;24.40;;;;;;5029007;28;20004;-65
2021/05/31 06:21:19;;;;;;;;;;;26.70;22.20;;;;;;5029015;28;19939;-65
2021/05/31 06:23:45;;;;;;;;;;;26.90;20.40;;;;;;5029328;28;20020;-67
2021/05/31 06:26:12;;;;;;;;;;;27.20;19.20;;;;;;5028305;28;19921;-66
2021/05/31 06:28:37;;;;;;;;;;;27.60;17.60;;;;;;5027917;28;19913;-65
2021/05/31 06:31:03;;;;;;;;;;;27.40;14.60;;;;;;5027588;28;19995;-65
2021/05/31 06:33:29;;;;;;;;;;;27.90;13.40;;;;;;5028894;28;19971;-66
2021/05/31 06:35:55;;;;;;;;;;;27.80;11.00;;;;;;5027790;28;19920;-66
2021/05/31 06:38:21;;;;;;;;;;;27.90;8.90;;;;;;5026576;28;19984;-66
2021/05/31 06:40:46;;;;;;;;;;;27.60;5.50;;;;;;5027272;28;19913;-65
2021/05/31 06:43:12;;;;;;;;;;;27.70;4.10;;;;;;5027056;28;19994;-65
2021/05/31 06:45:38;;;;;;;;;;;27.30;1.00;;;;;;5028651;28;19985;-66
2021/05/31 06:48:04;;;;;;;;;;;27.00;1.00;;;;;;5028309;28;19909;-67
2021/05/31 06:50:31;;;;;;;;;;;26.90;1.00;;;;;;5027395;28;19948;-66
2021/05/31 06:52:57;;;;;;;;;;;27.20;1.00;;;;;;5028200;28;20312;-66
2021/05/31 06:55:24;;;;;;;;;;;27.50;1.00;;;;;;5021744;28;20004;-66
2021/05/31 06:57:50;;;;;;;;;;;27.20;1.00;;;;;;5027277;28;19913;-66
2021/05/31 07:00:17;;;;;;;;;;;27.90;1.00;;;;;;5027646;28;19921;-66
2021/05/31 07:02:42;;;;;;;;;;;29.20;1.00;;;;;;5027773;28;19981;-66
2021/05/31 07:05:08;;;;;;;;;;;30.00;1.00;;;;;;5030278;28;19958;-66
2021/05/31 07:07:34;;;;;;;;;;;30.90;1.00;;;;;;5027502;28;20318;-66
2021/05/31 07:10:00;;;;;;;;;;;31.40;1.00;;;;;;5027196;28;19975;-66
2021/05/31 07:12:26;;;;;;;;;;;31.70;1.00;;;;;;5027244;28;20065;-66
2021/05/31 07:14:52;;;;;;;;;;;32.30;1.00;;;;;;5027872;28;19920;-66
2021/05/31 07:17:17;;;;;;;;;;;32.30;1.00;;;;;;5028024;28;19924;-66
2021/05/31 07:19:44;;;;;;;;;;;32.60;1.00;;;;;;5027544;28;19967;-66
2021/05/31 07:22:12;;;;;;;;;;;32.70;1.00;;;;;;5025262;28;19913;-65
2021/05/31 07:24:38;;;;;;;;;;;32.80;1.00;;;;;;5027611;28;19913;-65
2021/05/31 07:27:03;;;;;;;;;;;32.80;1.00;;;;;;5028162;28;20399;-66
2021/05/31 07:29:29;;;;;;;;;;;32.30;1.00;;;;;;5026895;28;20311;-66
2021/05/31 07:31:54;;;;;;;;;;;31.60;1.00;;;;;;5028058;28;19909;-65
2021/05/31 07:34:20;;;;;;;;;;;31.60;1.00;;;;;;5027822;28;19916;-66
2021/05/31 07:36:46;;;;;;;;;;;32.70;1.00;;;;;;5027249;28;19967;-66
2021/05/31 07:39:12;;;;;;;;;;;33.40;1.00;;;;;;5026755;28;19917;-66
2021/05/31 07:41:37;;;;;;;;;;;33.10;1.00;;;;;;5027439;28;20288;-66
2021/05/31 07:44:03;;;;;;;;;;;33.20;1.00;;;;;;5027220;28;19916;-66
2021/05/31 07:46:28;;;;;;;;;;;33.70;1.00;;;;;;5027880;28;20507;-66
2021/05/31 07:48:54;;;;;;;;;;;34.50;1.00;;;;;;5027449;28;20388;-66
2021/05/31 07:51:20;;;;;;;;;;;34.80;1.00;;;;;;5026899;28;20016;-66
2021/05/31 07:53:48;;;;;;;;;;;34.50;1.00;;;;;;5026624;28;19924;-66
2021/05/31 07:56:13;;;;;;;;;;;33.90;1.00;;;;;;5027203;28;19937;-66
2021/05/31 07:58:43;;;;;;;;;;;33.00;1.00;;;;;;5026709;28;19948;-66
2021/05/31 08:01:09;;;;;;;;;;;33.20;1.00;;;;;;5027036;28;19996;-66
2021/05/31 08:03:34;;;;;;;;;;;33.40;1.00;;;;;;5027816;28;20000;-66
2021/05/31 08:06:00;;;;;;;;;;;34.10;1.00;;;;;;5027823;28;19936;-66
2021/05/31 08:08:26;;;;;;;;;;;33.30;1.00;;;;;;5027659;28;20059;-66
2021/05/31 08:10:51;;;;;;;;;;;32.90;1.00;;;;;;5026698;28;19918;-65
2021/05/31 08:13:17;;;;;;;;;;;32.90;1.00;;;;;;5027437;28;19916;-66
2021/05/31 08:15:42;;;;;;;;;;;32.70;1.00;;;;;;5028290;28;19917;-65
2021/05/31 08:18:08;;;;;;;;;;;33.00;1.00;;;;;;5028216;28;19913;-66
2021/05/31 08:20:34;;;;;;;;;;;32.70;1.00;;;;;;5025902;28;19952;-66
2021/05/31 08:23:02;;;;;;;;;;;32.70;1.00;;;;;;5020755;28;20100;-66
2021/05/31 08:25:28;;;;;;;;;;;33.90;1.00;;;;;;5026977;28;19927;-66
2021/05/31 08:27:53;;;;;;;;;;;33.40;1.00;;;;;;5026610;28;20370;-65
2021/05/31 08:30:19;;;;;;;;;;;33.20;1.00;;;;;;5026378;28;19909;-66
2021/05/31 08:32:45;;;;;;;;;;;33.70;1.00;;;;;;5027733;28;20286;-66
2021/05/31 08:35:11;;;;;;;;;;;33.40;1.00;;;;;;5027187;28;19921;-66
2021/05/31 08:37:37;;;;;;;;;;;33.30;1.00;;;;;;5026500;28;21347;-65
2021/05/31 08:40:03;;;;;;;;;;;33.10;1.00;;;;;;5026517;28;19987;-66
2021/05/31 08:42:29;;;;;;;;;;;33.10;1.00;;;;;;5026808;28;19913;-66
2021/05/31 08:44:54;;;;;;;;;;;33.70;1.00;;;;;;5026875;28;20023;-66
2021/05/31 08:47:20;;;;;;;;;;;33.60;1.00;;;;;;5028581;28;19921;-66
2021/05/31 08:49:46;;;;;;;;;;;33.60;1.00;;;;;;5029749;28;19963;-66
2021/05/31 08:52:11;;;;;;;;;;;34.00;1.00;;;;;;5030176;28;19917;-66
2021/05/31 08:54:37;;;;;;;;;;;34.30;1.00;;;;;;5027876;28;20015;-66
2021/05/31 08:57:02;;;;;;;;;;;34.50;1.00;;;;;;5030890;28;20308;-66
2021/05/31 08:59:28;;;;;;;;;;;33.70;1.00;;;;;;5029527;28;19955;-66
2021/05/31 09:01:53;;;;;;;;;;;33.00;1.00;;;;;;5030216;28;19997;-66
2021/05/31 09:04:19;;;;;;;;;;;33.30;1.00;;;;;;5030461;28;19917;-66
2021/05/31 09:06:58;;;;;;;;;;;33.00;1.00;;;;;;5030403;28;19914;-66
2021/05/31 09:09:36;;;;;;;;;;;32.50;1.00;;;;;;5029204;28;19920;-66
2021/05/31 09:12:05;;;;;;;;;;;32.30;1.00;;;;;;5030398;28;19936;-66
2021/05/31 09:14:31;;;;;;;;;;;31.80;1.00;;;;;;5024661;28;19936;-66
2021/05/31 09:16:56;;;;;;;;;;;32.00;1.00;;;;;;5030557;28;20051;-66
2021/05/31 09:19:22;;;;;;;;;;;32.40;1.00;;;;;;5029045;28;19909;-66
2021/05/31 09:21:47;;;;;;;;;;;32.10;1.00;;;;;;5030333;28;19920;-65
2021/05/31 09:24:14;;;;;;;;;;;32.50;1.00;;;;;;5030593;28;19949;-68
2021/05/31 09:26:47;;;;;;;;;;;32.90;1.00;;;;;;5030096;28;19949;-67
2021/05/31 09:29:13;;;;;;;;;;;33.20;1.00;;;;;;5029108;28;20243;-65
2021/05/31 09:31:38;;;;;;;;;;;34.90;1.00;;;;;;5030067;28;19963;-66
2021/05/31 09:34:05;;;;;;;;;;;36.20;1.00;;;;;;5030059;28;19916;-66
2021/05/31 09:36:31;;;;;;;;;;;35.90;1.00;;;;;;5029775;28;19909;-66
2021/05/31 09:38:57;;;;;;;;;;;35.50;1.00;;;;;;5029359;28;19978;-66
2021/05/31 09:41:31;;;;;;;;;;;35.00;1.00;;;;;;5029551;28;19917;-66
2021/05/31 09:43:57;;;;;;;;;;;33.50;1.00;;;;;;5029582;28;19996;-66
2021/05/31 09:46:45;;;;;;;;;;;31.50;1.00;;;;;;5030052;28;19913;-66
2021/05/31 09:49:14;;;;;;;;;;;31.60;1.00;;;;;;5029166;28;19909;-66
2021/05/31 09:51:51;;;;;;;;;;;32.30;1.00;;;;;;5029620;28;19963;-66
2021/05/31 09:54:26;;;;;;;;;;;34.00;1.00;;;;;;5029739;28;19909;-66
2021/05/31 09:56:51;;;;;;;;;;;36.30;1.00;;;;;;5029857;28;20001;-66
2021/05/31 09:59:23;;;;;;;;;;;37.70;1.00;;;;;;5027063;28;19909;-66
2021/05/31 10:01:54;;;;;;;;;;;36.70;1.00;;;;;;5029694;28;20011;-66
2021/05/31 10:07:38;;;;;;;;;;;34.60;1.00;;;;;;5028863;28;20385;-66
2021/05/31 10:09:33;;;;;;;;;;;35.20;1.00;;;;;;5022968;28;19913;-66
2021/05/31 10:12:00;;;;;;;;;;;35.00;1.00;;;;;;5029830;28;19913;-66
2021/05/31 10:14:26;;;;;;;;;;;34.20;1.00;;;;;;5029018;28;19917;-66
2021/05/31 10:16:54;;;;;;;;;;;32.90;1.00;;;;;;5029642;28;20050;-66
2021/05/31 10:19:20;;;;;;;;;;;33.50;1.00;;;;;;5028591;28;19917;-68
2021/05/31 10:21:46;;;;;;;;;;;35.00;1.00;;;;;;5027633;28;19964;-67
2021/05/31 10:24:11;;;;;;;;;;;35.60;1.00;;;;;;5028038;28;19916;-66
2021/05/31 10:26:37;;;;;;;;;;;34.70;1.00;;;;;;5028737;28;19913;-65
2021/05/31 10:29:04;;;;;;;;;;;33.70;1.00;;;;;;5026835;28;19909;-65
2021/05/31 10:31:39;;;;;;;;;;;32.80;1.00;;;;;;5028863;28;19920;-68
2021/05/31 10:34:05;;;;;;;;;;;32.80;1.00;;;;;;5029139;28;19954;-65
2021/05/31 10:36:31;;;;;;;;;;;32.50;1.00;;;;;;5028817;28;20020;-65
2021/05/31 10:39:00;;;;;;;;;;;32.30;1.00;;;;;;5028574;28;19986;-67
2021/05/31 10:41:25;;;;;;;;;;;32.90;1.00;;;;;;5028698;28;19924;-65
2021/05/31 10:43:52;;;;;;;;;;;33.30;1.00;;;;;;5028256;28;19909;-65
2021/05/31 10:46:33;;;;;;;;;;;32.20;1.00;;;;;;5036488;28;19967;-65
2021/05/31 10:48:58;;;;;;;;;;;30.60;1.00;;;;;;5028135;28;19933;-66
2021/05/31 10:51:26;;;;;;;;;;;29.00;1.00;;;;;;5028245;28;20969;-65
2021/05/31 10:53:52;;;;;;;;;;;29.10;1.00;;;;;;5028638;28;20323;-63
2021/05/31 10:56:17;;;;;;;;;;;28.80;1.00;;;;;;5028942;28;19994;-67
2021/05/31 10:58:48;;;;;;;;;;;28.30;1.00;;;;;;5043168;28;19967;-65
2021/05/31 11:01:14;;;;;;;;;;;28.20;1.00;;;;;;5048125;28;19959;-65
2021/05/31 11:04:01;;;;;;;;;;;27.40;1.00;;;;;;5009436;28;20578;-65
2021/05/31 11:06:29;;;;;;;;;;;27.20;1.00;;;;;;5009255;28;20076;-65
2021/05/31 11:08:54;;;;;;;;;;;28.10;1.00;;;;;;5028461;28;19909;-65
2021/05/31 11:11:27;;;;;;;;;;;27.90;1.00;;;;;;5027299;28;20493;-65
2021/05/31 11:13:53;;;;;;;;;;;27.20;1.00;;;;;;5028421;28;19913;-67
2021/05/31 11:16:19;;;;;;;;;;;27.20;1.00;;;;;;5028553;28;19909;-68
2021/05/31 11:18:46;;;;;;;;;;;27.50;1.00;;;;;;5028726;28;20310;-65
2021/05/31 11:21:23;;;;;;;;;;;28.30;1.00;;;;;;5026673;28;19944;-65
2021/05/31 11:23:54;;;;;;;;;;;28.60;1.00;;;;;;5028666;28;19967;-65
2021/05/31 11:26:20;;;;;;;;;;;28.60;1.00;;;;;;5027971;28;19952;-65
2021/05/31 11:28:45;;;;;;;;;;;28.60;1.00;;;;;;5027781;28;20018;-67
2021/05/31 11:31:11;;;;;;;;;;;28.60;1.00;;;;;;5023283;28;19924;-67
2021/05/31 11:33:37;;;;;;;;;;;28.90;1.00;;;;;;5026269;28;20251;-67
2021/05/31 11:36:02;;;;;;;;;;;29.00;1.00;;;;;;5027753;28;20000;-65
2021/05/31 11:38:29;;;;;;;;;;;27.80;1.00;;;;;;5028388;28;19959;-67
2021/05/31 11:40:54;;;;;;;;;;;26.30;1.00;;;;;;5027221;28;19909;-63
2021/05/31 11:43:20;;;;;;;;;;;25.80;1.00;;;;;;5026920;28;19920;-66
2021/05/31 11:45:47;;;;;;;;;;;25.70;1.00;;;;;;5028527;28;20067;-65
2021/05/31 11:48:14;;;;;;;;;;;24.80;1.00;;;;;;5028493;28;20322;-65
2021/05/31 11:50:40;;;;;;;;;;;24.20;1.00;;;;;;5027330;28;19909;-66
2021/05/31 11:53:08;;;;;;;;;;;23.60;1.00;;;;;;5028195;28;19917;-67
2021/05/31 11:55:34;;;;;;;;;;;23.20;1.00;;;;;;5027621;28;19913;-67
2021/05/31 11:57:59;;;;;;;;;;;22.90;1.00;;;;;;5027842;28;19909;-64
2021/05/31 12:00:26;;;;;;;;;;;23.20;1.00;;;;;;5027194;28;19963;-65
2021/05/31 12:02:52;;;;;;;;;;;23.40;1.00;;;;;;5024827;28;19913;-65
2021/05/31 12:05:27;;;;;;;;;;;23.40;1.00;;;;;;5027347;28;20034;-67
2021/05/31 12:07:53;;;;;;;;;;;23.00;1.00;;;;;;5027868;28;19911;-67
2021/05/31 12:10:18;;;;;;;;;;;22.30;1.00;;;;;;5026884;28;19917;-67
2021/05/31 12:12:49;;;;;;;;;;;21.40;1.00;;;;;;5026097;28;20136;-67
2021/05/31 12:15:17;;;;;;;;;;;20.90;1.00;;;;;;5027722;28;19913;-68
2021/05/31 12:17:43;;;;;;;;;;;20.50;1.00;;;;;;5027624;28;19964;-67
2021/05/31 12:20:09;;;;;;;;;;;20.30;1.00;;;;;;5027103;28;19909;-68
2021/05/31 12:22:38;;;;;;;;;;;20.30;1.00;;;;;;5029977;28;20030;-69
2021/05/31 12:25:05;;;;;;;;;;;20.20;1.00;;;;;;5031024;28;20008;-66
2021/05/31 12:27:40;;;;;;;;;;;20.00;1.00;;;;;;5027037;28;19944;-67
2021/05/31 12:30:09;;;;;;;;;;;20.10;1.00;;;;;;5030674;28;19992;-67
2021/05/31 12:32:36;;;;;;;;;;;20.20;1.00;;;;;;5030946;28;19924;-67
2021/05/31 12:35:03;;;;;;;;;;;20.50;1.00;;;;;;5030921;28;19957;-67
2021/05/31 12:37:30;;;;;;;;;;;20.70;1.00;;;;;;5030458;28;19982;-67
2021/05/31 12:39:56;;;;;;;;;;;20.50;1.00;;;;;;5030187;28;19913;-70
2021/05/31 12:42:23;;;;;;;;;;;20.40;1.00;;;;;;5031409;28;19917;-67
2021/05/31 12:44:49;;;;;;;;;;;20.20;1.00;;;;;;5029101;28;19909;-67
2021/05/31 12:47:16;;;;;;;;;;;20.10;1.00;;;;;;5031082;28;20007;-67
2021/05/31 12:49:43;;;;;;;;;;;19.70;1.00;;;;;;5030334;28;19909;-67
2021/05/31 12:52:08;;;;;;;;;;;19.60;1.00;;;;;;5030727;28;20019;-67
2021/05/31 12:54:34;;;;;;;;;;;19.80;1.00;;;;;;5030766;28;19967;-67
2021/05/31 12:57:06;;;;;;;;;;;20.00;1.00;;;;;;5030793;28;19909;-67
2021/05/31 12:59:32;;;;;;;;;;;19.80;1.00;;;;;;5032953;28;20150;-67
2021/05/31 13:01:58;;;;;;;;;;;19.70;1.00;;;;;;5044662;28;19913;-66
2021/05/31 13:04:28;;;;;;;;;;;19.40;1.00;;;;;;5030644;28;19920;-66
2021/05/31 13:06:53;;;;;;;;;;;19.50;1.00;;;;;;5030228;28;20305;-68
2021/05/31 13:09:23;;;;;;;;;;;19.80;1.00;;;;;;5030016;28;19917;-68
2021/05/31 13:11:49;;;;;;;;;;;19.90;1.00;;;;;;5030594;28;20294;-67
2021/05/31 13:14:17;;;;;;;;;;;19.70;1.00;;;;;;5030015;28;19919;-70
2021/05/31 13:16:52;;;;;;;;;;;19.80;1.00;;;;;;5030995;28;20280;-67
2021/05/31 13:19:18;;;;;;;;;;;19.80;1.00;;;;;;5029551;28;19913;-67
2021/05/31 13:21:43;;;;;;;;;;;19.60;1.00;;;;;;5030522;28;19919;-69
2021/05/31 13:24:09;;;;;;;;;;;19.50;1.00;;;;;;5030191;28;20281;-69
2021/05/31 13:26:36;;;;;;;;;;;19.50;1.00;;;;;;5030575;28;19913;-69
2021/05/31 13:29:01;;;;;;;;;;;19.50;1.00;;;;;;5029150;28;20293;-67
2021/05/31 13:31:28;;;;;;;;;;;19.50;1.00;;;;;;5029824;28;19909;-67
2021/05/31 13:33:54;;;;;;;;;;;19.70;1.00;;;;;;5026961;28;20016;-67
2021/05/31 13:36:29;;;;;;;;;;;19.80;1.00;;;;;;5026993;28;19910;-69
2021/05/31 13:39:08;;;;;;;;;;;19.80;1.00;;;;;;5029819;28;19970;-67
2021/05/31 13:41:35;;;;;;;;;;;19.80;1.00;;;;;;5029238;28;20016;-68
2021/05/31 13:44:00;;;;;;;;;;;19.80;1.00;;;;;;5029778;28;20370;-67
2021/05/31 13:46:26;;;;;;;;;;;19.90;1.00;;;;;;5040757;28;19908;-67
2021/05/31 13:48:51;;;;;;;;;;;19.80;1.00;;;;;;5050168;28;19921;-67
2021/05/31 13:51:16;;;;;;;;;;;19.80;1.00;;;;;;5024824;28;19988;-67
2021/05/31 13:53:42;;;;;;;;;;;19.90;1.00;;;;;;5027155;28;20724;-66
2021/05/31 13:56:07;;;;;;;;;;;19.90;1.00;;;;;;5030017;28;19913;-67
2021/05/31 13:58:33;;;;;;;;;;;19.80;1.00;;;;;;5028715;28;19937;-67
2021/05/31 14:00:58;;;;;;;;;;;19.80;1.00;;;;;;5028630;28;19909;-68
2021/05/31 14:03:24;;;;;;;;;;;19.90;1.00;;;;;;5021170;28;20081;-68
2021/05/31 14:05:51;;;;;;;;;;;19.90;1.00;;;;;;5029060;28;19919;-67
2021/05/31 14:08:17;;;;;;;;;;;20.00;1.00;;;;;;5029794;28;19909;-65
2021/05/31 14:10:43;;;;;;;;;;;20.10;1.00;;;;;;5028849;28;20004;-67
2021/05/31 14:13:09;;;;;;;;;;;20.10;1.00;;;;;;5028967;28;19913;-66
2021/05/31 14:15:35;;;;;;;;;;;20.10;1.00;;;;;;5028973;28;19909;-66
2021/05/31 14:18:01;;;;;;;;;;;20.10;1.00;;;;;;5029821;28;19921;-66
2021/05/31 14:20:28;;;;;;;;;;;20.10;1.00;;;;;;5028452;28;20047;-66
2021/05/31 14:22:54;;;;;;;;;;;20.10;1.00;;;;;;5029009;28;19920;-66
2021/05/31 14:25:20;;;;;;;;;;;20.10;1.00;;;;;;5029532;28;20286;-66
2021/05/31 14:27:46;;;;;;;;;;;20.20;1.00;;;;;;5027832;28;20628;-65
2021/05/31 14:30:12;;;;;;;;;;;19.90;1.00;;;;;;5028510;28;20390;-66
2021/05/31 14:32:38;;;;;;;;;;;19.70;1.00;;;;;;5028693;28;19999;-65
2021/05/31 14:35:05;;;;;;;;;;;19.60;1.00;;;;;;5029181;28;20294;-66
2021/05/31 14:37:31;;;;;;;;;;;19.80;1.00;;;;;;5028220;28;19932;-66
2021/05/31 14:39:56;;;;;;;;;;;19.80;1.00;;;;;;5028594;28;19917;-66
2021/05/31 14:42:22;;;;;;;;;;;19.80;1.00;;;;;;5028940;28;20321;-66